Time,TemperatureF,DewpointF,PressureIn,WindDirection,WindDirectionDegrees,WindSpeedMPH,WindSpeedGustMPH,Humidity,HourlyPrecipIn,Conditions,Clouds,dailyrainin,SoftwareType,DateUTC
2013-02-03 00:00:00,28.2,25.1,29.96,South,180,0.0,2.0,88,0.00,OVC,OVC,0.00,WeatherDisplay:10.31,2013-02-03 05:00:00,
2013-02-03 00:10:00,28.1,25.0,29.95,South,180,0.0,2.0,88,0.00,OVC,OVC,0.00,WeatherDisplay:10.31,2013-02-03 05:10:00,
2013-02-03 00:20:00,27.9,24.8,29.95,South,180,0.0,1.0,88,0.00,OVC,OVC,0.00,WeatherDisplay:10.31,2013-02-03 05:20:00,
2013-02-03 00:25:00,27.9,24.8,29.95,South,180,0.0,1.0,88,0.00,OVC,OVC,0.00,WeatherDisplay:10.31,2013-02-03 05:25:00,
2013-02-03 00:30:00,27.8,24.7,29.94,South,180,0.0,2.0,88,0.00,OVC,OVC,0.00,WeatherDisplay:10.31,2013-02-03 05:30:00,
2013-02-03 00:40:00,27.6,24.5,29.94,South,180,0.0,2.0,88,0.00,OVC,OVC,0.00,WeatherDisplay:10.31,2013-02-03 05:40:00,
2013-02-03 00:50:00,27.5,24.4,29.94,South,180,0.0,1.0,88,0.00,OVC,OVC,0.00,WeatherDisplay:10.31,2013-02-03 05:50:00,
2013-02-03 01:00:00,27.5,24.4,29.93,South,180,1.0,2.0,88,0.00,OVC,OVC,0.00,WeatherDisplay:10.31,2013-02-03 06:00:00,
2013-02-03 01:10:00,27.3,24.2,29.93,South,180,1.0,2.0,88,0.00,OVC,OVC,0.00,WeatherDisplay:10.31,2013-02-03 06:10:00,
2013-02-03 01:20:00,27.2,24.1,29.93,South,180,0.0,2.0,88,0.00,OVC,OVC,0.00,WeatherDisplay:10.31,2013-02-03 06:20:00,
2013-02-03 01:30:00,27.2,24.1,29.93,South,180,0.0,1.0,88,0.00,OVC,OVC,0.00,WeatherDisplay:10.31,2013-02-03 06:30:00,
2013-02-03 01:40:00,27.2,24.1,29.93,South,180,0.0,1.0,88,0.00,OVC,OVC,0.00,WeatherDisplay:10.31,2013-02-03 06:40:00,
2013-02-03 01:50:00,27.2,24.1,29.92,South,180,0.0,2.0,88,0.00,OVC,OVC,0.00,WeatherDisplay:10.31,2013-02-03 06:50:00,
2013-02-03 02:00:00,27.2,24.1,29.92,South,180,0.0,1.0,88,0.00,OVC,OVC,0.00,WeatherDisplay:10.31,2013-02-03 07:00:00,
2013-02-03 02:05:00,27.2,24.1,29.92,South,180,0.0,1.0,88,0.00,OVC,OVC,0.00,WeatherDisplay:10.31,2013-02-03 07:05:00,
2013-02-03 02:10:00,27.2,24.1,29.92,South,180,0.0,0.0,88,0.00,OVC,OVC,0.00,WeatherDisplay:10.31,2013-02-03 07:10:00,
2013-02-03 02:20:00,27.3,24.5,29.92,South,180,0.0,1.0,89,0.00,OVC,OVC,0.00,WeatherDisplay:10.31,2013-02-03 07:20:00,
2013-02-03 02:25:00,27.3,24.5,29.91,South,180,0.0,0.0,89,0.00,OVC,OVC,0.00,WeatherDisplay:10.31,2013-02-03 07:25:00,
2013-02-03 02:30:00,27.3,24.5,29.91,South,180,0.0,0.0,89,0.00,OVC,OVC,0.00,WeatherDisplay:10.31,2013-02-03 07:30:00,
2013-02-03 02:40:00,27.2,24.1,29.91,South,180,0.0,0.0,88,0.00,OVC,OVC,0.00,WeatherDisplay:10.31,2013-02-03 07:40:00,
2013-02-03 02:45:00,27.2,24.1,29.91,South,180,0.0,0.0,88,0.00,OVC,OVC,0.00,WeatherDisplay:10.31,2013-02-03 07:45:00,
2013-02-03 02:50:00,27.2,24.1,29.90,South,180,0.0,1.0,88,0.00,OVC,OVC,0.00,WeatherDisplay:10.31,2013-02-03 07:50:00,
2013-02-03 03:00:00,27.0,24.2,29.90,South,180,0.0,1.0,89,0.00,OVC,OVC,0.00,WeatherDisplay:10.31,2013-02-03 08:00:00,
2013-02-03 03:05:00,27.1,24.3,29.90,South,180,0.0,1.0,89,0.00,OVC,OVC,0.00,WeatherDisplay:10.31,2013-02-03 08:05:00,
2013-02-03 03:10:00,27.2,24.4,29.89,South,180,0.0,1.0,89,0.00,OVC,OVC,0.00,WeatherDisplay:10.31,2013-02-03 08:10:00,
2013-02-03 03:20:00,27.0,24.2,29.89,South,180,0.0,2.0,89,0.00,OVC,OVC,0.00,WeatherDisplay:10.31,2013-02-03 08:20:00,
2013-02-03 03:30:00,27.0,24.2,29.88,South,180,0.0,2.0,89,0.00,OVC,OVC,0.00,WeatherDisplay:10.31,2013-02-03 08:30:00,
2013-02-03 03:40:00,27.0,24.2,29.88,South,180,0.0,1.0,89,0.00,OVC,OVC,0.00,WeatherDisplay:10.31,2013-02-03 08:40:00,
2013-02-03 03:50:00,26.9,24.1,29.87,South,180,0.0,1.0,89,0.00,OVC,OVC,0.00,WeatherDisplay:10.31,2013-02-03 08:50:00,
2013-02-03 04:00:00,26.7,23.9,29.87,South,180,1.0,2.0,89,0.00,OVC,OVC,0.00,WeatherDisplay:10.31,2013-02-03 09:00:00,
2013-02-03 04:05:00,26.6,23.5,29.87,South,180,0.0,2.0,88,0.00,OVC,OVC,0.00,WeatherDisplay:10.31,2013-02-03 09:05:00,
2013-02-03 04:10:00,26.6,23.8,29.87,South,180,1.0,3.0,89,0.00,OVC,OVC,0.00,WeatherDisplay:10.31,2013-02-03 09:10:00,
2013-02-03 04:20:00,26.6,23.8,29.87,South,180,1.0,2.0,89,0.00,OVC,OVC,0.00,WeatherDisplay:10.31,2013-02-03 09:20:00,
2013-02-03 04:30:00,26.7,23.9,29.86,South,180,1.0,3.0,89,0.00,OVC,OVC,0.00,WeatherDisplay:10.31,2013-02-03 09:30:00,
2013-02-03 04:40:00,26.9,24.1,29.87,South,180,1.0,3.0,89,0.00,OVC,OVC,0.00,WeatherDisplay:10.31,2013-02-03 09:40:00,
2013-02-03 04:50:00,27.0,24.2,29.87,South,180,0.0,3.0,89,0.00,OVC,OVC,0.00,WeatherDisplay:10.31,2013-02-03 09:50:00,
2013-02-03 05:00:00,27.0,24.2,29.87,South,180,1.0,3.0,89,0.00,OVC,OVC,0.00,WeatherDisplay:10.31,2013-02-03 10:00:00,
2013-02-03 05:10:00,26.9,24.1,29.87,South,180,0.0,2.0,89,0.00,OVC,OVC,0.00,WeatherDisplay:10.31,2013-02-03 10:10:00,
2013-02-03 05:20:00,26.9,24.1,29.87,South,180,0.0,2.0,89,0.00,OVC,OVC,0.00,WeatherDisplay:10.31,2013-02-03 10:20:00,
2013-02-03 05:30:00,26.6,23.8,29.87,South,180,0.0,2.0,89,0.00,OVC,OVC,0.00,WeatherDisplay:10.31,2013-02-03 10:30:00,
2013-02-03 05:40:00,26.6,23.8,29.87,South,180,0.0,2.0,89,0.00,OVC,OVC,0.00,WeatherDisplay:10.31,2013-02-03 10:40:00,
2013-02-03 05:50:00,26.6,23.8,29.87,South,180,1.0,2.0,89,0.00,OVC,OVC,0.00,WeatherDisplay:10.31,2013-02-03 10:50:00,
2013-02-03 06:00:00,26.6,23.8,29.87,South,180,0.0,2.0,89,0.00,OVC,OVC,0.00,WeatherDisplay:10.31,2013-02-03 11:00:00,
2013-02-03 06:05:00,26.6,23.8,29.87,South,180,0.0,2.0,89,0.00,OVC,OVC,0.00,WeatherDisplay:10.31,2013-02-03 11:05:00,
2013-02-03 06:10:00,26.6,23.8,29.87,South,180,0.0,2.0,89,0.00,OVC,OVC,0.00,WeatherDisplay:10.31,2013-02-03 11:10:00,
2013-02-03 06:20:00,26.7,23.9,29.87,South,180,1.0,2.0,89,0.00,OVC,OVC,0.00,WeatherDisplay:10.31,2013-02-03 11:20:00,
2013-02-03 06:30:00,26.7,23.9,29.87,South,180,1.0,2.0,89,0.00,OVC,OVC,0.00,WeatherDisplay:10.31,2013-02-03 11:30:00,
2013-02-03 06:40:00,26.9,24.1,29.88,South,180,1.0,3.0,89,0.00,OVC,OVC,0.00,WeatherDisplay:10.31,2013-02-03 11:40:00,
2013-02-03 06:45:00,26.7,23.9,29.87,South,180,1.0,2.0,89,0.00,OVC,OVC,0.00,WeatherDisplay:10.31,2013-02-03 11:45:00,
2013-02-03 06:50:00,26.9,24.4,29.87,South,180,1.0,2.0,90,0.00,OVC,OVC,0.00,WeatherDisplay:10.31,2013-02-03 11:50:00,
2013-02-03 07:00:00,26.9,24.4,29.88,South,180,1.0,2.0,90,0.00,OVC,OVC,0.00,WeatherDisplay:10.31,2013-02-03 12:00:00,
2013-02-03 07:05:00,26.9,24.4,29.88,SSE,152,1.0,3.0,90,0.00,OVC,OVC,0.00,WeatherDisplay:10.31,2013-02-03 12:05:00,
2013-02-03 07:10:00,26.9,24.4,29.88,ESE,120,1.0,2.0,90,0.00,OVC,OVC,0.00,WeatherDisplay:10.31,2013-02-03 12:10:00,
2013-02-03 07:20:00,26.7,24.2,29.89,ESE,113,0.0,1.0,90,0.00,SCT,SCT,0.00,WeatherDisplay:10.31,2013-02-03 12:20:00,
2013-02-03 07:25:00,26.7,23.9,29.89,ESE,113,1.0,2.0,89,0.00,SCT,SCT,0.00,WeatherDisplay:10.31,2013-02-03 12:25:00,
2013-02-03 07:30:00,26.6,23.8,29.89,ESE,113,1.0,2.0,89,0.00,SCT,SCT,0.00,WeatherDisplay:10.31,2013-02-03 12:30:00,
2013-02-03 07:40:00,26.6,24.1,29.89,ESE,113,1.0,2.0,90,0.00,FEW,FEW,0.00,WeatherDisplay:10.31,2013-02-03 12:40:00,
2013-02-03 07:50:00,26.4,23.9,29.89,ESE,113,1.0,3.0,90,0.00,SCT,SCT,0.00,WeatherDisplay:10.31,2013-02-03 12:50:00,
2013-02-03 08:00:00,26.6,24.1,29.89,ESE,113,1.0,2.0,90,0.00,BKN,BKN,0.00,WeatherDisplay:10.31,2013-02-03 13:00:00,
2013-02-03 08:05:00,26.6,24.1,29.89,ESE,113,1.0,3.0,90,0.00,BKN,BKN,0.00,WeatherDisplay:10.31,2013-02-03 13:05:00,
2013-02-03 08:10:00,26.6,24.1,29.90,ESE,113,1.0,3.0,90,0.00,BKN,BKN,0.00,WeatherDisplay:10.31,2013-02-03 13:10:00,
2013-02-03 08:20:00,26.7,24.2,29.90,ESE,113,1.0,3.0,90,0.00,BKN,BKN,0.00,WeatherDisplay:10.31,2013-02-03 13:20:00,
2013-02-03 08:30:00,26.9,24.4,29.90,ESE,113,0.0,2.0,90,0.00,BKN,BKN,0.00,WeatherDisplay:10.31,2013-02-03 13:30:00,
2013-02-03 08:40:00,27.0,24.5,29.90,ESE,113,1.0,3.0,90,0.00,BKN,BKN,0.00,WeatherDisplay:10.31,2013-02-03 13:40:00,
2013-02-03 08:50:00,27.3,24.8,29.90,ESE,113,0.0,3.0,90,0.00,BKN,BKN,0.00,WeatherDisplay:10.31,2013-02-03 13:50:00,
2013-02-03 09:00:00,27.6,25.1,29.89,ESE,113,1.0,3.0,90,0.00,BKN,BKN,0.00,WeatherDisplay:10.31,2013-02-03 14:00:00,
2013-02-03 09:05:00,27.8,25.2,29.89,ESE,113,2.0,3.0,90,0.00,BKN,BKN,0.00,WeatherDisplay:10.31,2013-02-03 14:05:00,
2013-02-03 09:10:00,27.8,25.2,29.89,ESE,113,2.0,3.0,90,0.00,BKN,BKN,0.00,WeatherDisplay:10.31,2013-02-03 14:10:00,
2013-02-03 09:20:00,28.1,25.5,29.89,ESE,113,1.0,3.0,90,0.00,SCT,SCT,0.00,WeatherDisplay:10.31,2013-02-03 14:20:00,
2013-02-03 09:30:00,28.2,25.4,29.89,ESE,106,1.0,3.0,89,0.00,SCT,SCT,0.00,WeatherDisplay:10.31,2013-02-03 14:30:00,
2013-02-03 09:40:00,28.7,25.9,29.89,East,97,2.0,3.0,89,0.00,SCT,SCT,0.00,WeatherDisplay:10.31,2013-02-03 14:40:00,
2013-02-03 09:45:00,29.0,26.2,29.89,East,97,0.0,3.0,89,0.00,SCT,SCT,0.00,WeatherDisplay:10.31,2013-02-03 14:45:00,
2013-02-03 09:50:00,29.3,26.2,29.89,East,90,0.0,2.0,88,0.00,SCT,SCT,0.00,WeatherDisplay:10.31,2013-02-03 14:50:00,
2013-02-03 10:00:00,29.7,26.6,29.88,East,86,2.0,5.0,88,0.00,SCT,SCT,0.00,WeatherDisplay:10.31,2013-02-03 15:00:00,
2013-02-03 10:05:00,30.1,26.7,29.88,ENE,75,1.0,3.0,87,0.01,RA,RA,0.01,WeatherDisplay:10.31,2013-02-03 15:05:00,
2013-02-03 10:10:00,30.3,26.6,29.88,ENE,68,2.0,3.0,86,0.00,RA,RA,0.01,WeatherDisplay:10.31,2013-02-03 15:10:00,
2013-02-03 10:15:00,30.1,26.1,29.87,ENE,68,2.0,3.0,85,0.00,BKN,BKN,0.01,WeatherDisplay:10.31,2013-02-03 15:15:00,
2013-02-03 10:20:00,30.3,26.3,29.88,ENE,68,1.0,3.0,85,0.00,BKN,BKN,0.01,WeatherDisplay:10.31,2013-02-03 15:20:00,
2013-02-03 10:25:00,30.4,26.1,29.87,ENE,68,2.0,3.0,84,0.00,BKN,BKN,0.01,WeatherDisplay:10.31,2013-02-03 15:25:00,
2013-02-03 10:30:00,30.6,26.3,29.87,ENE,69,1.0,3.0,84,0.00,BKN,BKN,0.01,WeatherDisplay:10.31,2013-02-03 15:30:00,
2013-02-03 10:40:00,30.6,26.1,29.87,East,87,1.0,3.0,83,0.00,FEW,FEW,0.01,WeatherDisplay:10.31,2013-02-03 15:40:00,
2013-02-03 10:45:00,30.6,25.5,29.87,East,84,1.0,3.0,81,0.00,SCT,SCT,0.01,WeatherDisplay:10.31,2013-02-03 15:45:00,
2013-02-03 10:50:00,30.7,25.3,29.87,East,85,2.0,5.0,80,0.00,SCT,SCT,0.01,WeatherDisplay:10.31,2013-02-03 15:50:00,
2013-02-03 11:00:00,31.3,25.8,29.87,East,90,2.0,3.0,80,0.00,SCT,SCT,0.01,WeatherDisplay:10.31,2013-02-03 16:00:00,
2013-02-03 11:10:00,31.5,25.4,29.86,East,90,2.0,3.0,78,0.00,SCT,SCT,0.01,WeatherDisplay:10.31,2013-02-03 16:10:00,
2013-02-03 11:20:00,31.8,25.4,29.86,East,90,1.0,2.0,77,0.00,CLR,CLR,0.01,WeatherDisplay:10.31,2013-02-03 16:20:00,
2013-02-03 11:25:00,32.5,26.1,29.85,East,90,2.0,3.0,77,0.00,SCT,SCT,0.01,WeatherDisplay:10.31,2013-02-03 16:25:00,
2013-02-03 11:30:00,32.8,26.1,29.85,East,90,1.0,3.0,76,0.00,SCT,SCT,0.01,WeatherDisplay:10.31,2013-02-03 16:30:00,
2013-02-03 11:40:00,33.1,25.7,29.85,East,99,1.0,3.0,74,0.00,BKN,BKN,0.01,WeatherDisplay:10.31,2013-02-03 16:40:00,
2013-02-03 11:50:00,32.9,25.2,29.85,SE,129,1.0,3.0,73,0.00,SCT,SCT,0.01,WeatherDisplay:10.31,2013-02-03 16:50:00,
2013-02-03 12:00:00,33.1,25.7,29.84,SSE,159,2.0,5.0,74,0.00,OVC,OVC,0.01,WeatherDisplay:10.31,2013-02-03 17:00:00,
2013-02-03 12:05:00,32.8,25.4,29.84,SSE,164,2.0,3.0,74,0.00,OVC,OVC,0.01,WeatherDisplay:10.31,2013-02-03 17:05:00,
2013-02-03 12:10:00,32.8,25.4,29.84,SSE,158,3.0,5.0,74,0.00,OVC,OVC,0.01,WeatherDisplay:10.31,2013-02-03 17:10:00,
2013-02-03 12:20:00,32.5,25.1,29.83,SSW,194,0.0,5.0,74,0.00,OVC,OVC,0.01,WeatherDisplay:10.31,2013-02-03 17:20:00,
2013-02-03 12:30:00,32.2,24.8,29.83,South,177,3.0,6.0,74,0.00,OVC,OVC,0.01,WeatherDisplay:10.31,2013-02-03 17:30:00,
2013-02-03 12:40:00,32.2,25.5,29.82,SSE,158,3.0,5.0,76,0.00,OVC,OVC,0.01,WeatherDisplay:10.31,2013-02-03 17:40:00,
2013-02-03 12:50:00,32.2,25.5,29.82,South,178,5.0,7.0,76,0.00,FEW,FEW,0.01,WeatherDisplay:10.31,2013-02-03 17:50:00,
2013-02-03 13:00:00,32.5,26.1,29.82,SSW,192,5.0,10.0,77,0.00,OVC,OVC,0.01,WeatherDisplay:10.31,2013-02-03 18:00:00,
2013-02-03 13:05:00,32.4,26.0,29.81,SSW,198,5.0,10.0,77,0.00,OVC,OVC,0.01,WeatherDisplay:10.31,2013-02-03 18:05:00,
2013-02-03 13:10:00,32.2,26.1,29.81,SSW,201,7.0,10.0,78,0.00,OVC,OVC,0.01,WeatherDisplay:10.31,2013-02-03 18:10:00,
2013-02-03 13:20:00,31.9,25.8,29.81,SSW,210,7.0,12.0,78,0.00,OVC,OVC,0.01,WeatherDisplay:10.31,2013-02-03 18:20:00,
2013-02-03 13:30:00,31.9,26.4,29.80,SSW,194,6.0,10.0,80,0.00,SCT,SCT,0.01,WeatherDisplay:10.31,2013-02-03 18:30:00,
2013-02-03 13:40:00,31.8,26.9,29.80,SSW,200,6.0,12.0,82,0.00,OVC,OVC,0.01,WeatherDisplay:10.31,2013-02-03 18:40:00,
2013-02-03 13:50:00,31.5,26.3,29.80,SSW,202,9.0,12.0,81,0.00,OVC,OVC,0.01,WeatherDisplay:10.31,2013-02-03 18:50:00,
2013-02-03 14:00:00,31.5,26.3,29.79,South,181,1.0,7.0,81,0.00,OVC,OVC,0.01,WeatherDisplay:10.31,2013-02-03 19:00:00,
2013-02-03 14:05:00,31.8,26.6,29.79,South,172,6.0,9.0,81,0.00,BKN,BKN,0.01,WeatherDisplay:10.31,2013-02-03 19:05:00,
2013-02-03 14:10:00,31.8,26.6,29.79,SSW,202,6.0,10.0,81,0.00,BKN,BKN,0.01,WeatherDisplay:10.31,2013-02-03 19:10:00,
2013-02-03 14:20:00,31.8,26.6,29.79,SSW,213,6.0,10.0,81,0.00,BKN,BKN,0.01,WeatherDisplay:10.31,2013-02-03 19:20:00,
2013-02-03 14:30:00,31.9,26.4,29.79,SSW,209,3.0,9.0,80,0.00,OVC,OVC,0.01,WeatherDisplay:10.31,2013-02-03 19:30:00,
2013-02-03 14:40:00,31.9,26.4,29.79,SSW,200,3.0,10.0,80,0.00,SCT,SCT,0.01,WeatherDisplay:10.31,2013-02-03 19:40:00,
2013-02-03 14:50:00,31.9,26.4,29.79,SSW,201,9.0,12.0,80,0.00,BKN,BKN,0.01,WeatherDisplay:10.31,2013-02-03 19:50:00,
2013-02-03 15:00:00,31.6,26.1,29.79,SSW,192,2.0,6.0,80,0.00,BKN,BKN,0.01,WeatherDisplay:10.31,2013-02-03 20:00:00,
2013-02-03 15:05:00,31.9,26.4,29.79,South,180,5.0,6.0,80,0.00,SCT,SCT,0.01,WeatherDisplay:10.31,2013-02-03 20:05:00,
2013-02-03 15:10:00,32.1,26.9,29.79,South,189,5.0,6.0,81,0.00,BKN,BKN,0.01,WeatherDisplay:10.31,2013-02-03 20:10:00,
2013-02-03 15:20:00,32.5,26.7,29.79,SW,219,5.0,6.0,79,0.00,OVC,OVC,0.01,WeatherDisplay:10.31,2013-02-03 20:20:00,
2013-02-03 15:30:00,32.4,26.3,29.79,SSW,204,5.0,7.0,78,0.00,BKN,BKN,0.01,WeatherDisplay:10.31,2013-02-03 20:30:00,
2013-02-03 15:40:00,32.5,26.4,29.79,South,187,5.0,7.0,78,0.00,OVC,OVC,0.01,WeatherDisplay:10.31,2013-02-03 20:40:00,
2013-02-03 15:50:00,32.5,26.1,29.80,SW,221,3.0,6.0,77,0.00,OVC,OVC,0.01,WeatherDisplay:10.31,2013-02-03 20:50:00,
2013-02-03 16:00:00,32.7,26.3,29.80,SSW,202,5.0,9.0,77,0.00,OVC,OVC,0.01,WeatherDisplay:10.31,2013-02-03 21:00:00,
2013-02-03 16:05:00,32.5,25.8,29.80,SSW,202,5.0,6.0,76,0.00,OVC,OVC,0.01,WeatherDisplay:10.31,2013-02-03 21:05:00,
2013-02-03 16:10:00,32.5,25.8,29.80,SSW,202,5.0,8.0,76,0.00,OVC,OVC,0.01,WeatherDisplay:10.31,2013-02-03 21:10:00,
2013-02-03 16:20:00,32.5,25.8,29.79,SSW,195,6.0,12.0,76,0.00,BKN,BKN,0.01,WeatherDisplay:10.31,2013-02-03 21:20:00,
2013-02-03 16:30:00,32.5,25.5,29.78,SSW,192,2.0,7.0,75,0.00,SCT,SCT,0.01,WeatherDisplay:10.31,2013-02-03 21:30:00,
2013-02-03 16:40:00,32.8,26.1,29.79,SSW,194,2.0,7.0,76,0.00,BKN,BKN,0.01,WeatherDisplay:10.31,2013-02-03 21:40:00,
2013-02-03 16:50:00,32.8,26.1,29.79,SW,228,2.0,5.0,76,0.00,BKN,BKN,0.01,WeatherDisplay:10.31,2013-02-03 21:50:00,
2013-02-03 17:00:00,32.7,25.6,29.79,South,185,3.0,6.0,75,0.00,SCT,SCT,0.01,WeatherDisplay:10.31,2013-02-03 22:00:00,
2013-02-03 17:05:00,32.7,26.0,29.79,South,180,6.0,7.0,76,0.00,FEW,FEW,0.01,WeatherDisplay:10.31,2013-02-03 22:05:00,
2013-02-03 17:10:00,32.7,26.0,29.79,South,180,3.0,6.0,76,0.00,SCT,SCT,0.01,WeatherDisplay:10.31,2013-02-03 22:10:00,
2013-02-03 17:20:00,32.5,26.1,29.79,South,180,3.0,5.0,77,0.00,BKN,BKN,0.01,WeatherDisplay:10.31,2013-02-03 22:20:00,
2013-02-03 17:30:00,32.4,26.0,29.79,South,180,3.0,6.0,77,0.00,OVC,OVC,0.01,WeatherDisplay:10.31,2013-02-03 22:30:00,
2013-02-03 17:35:00,32.4,26.0,29.79,South,180,2.0,7.0,77,0.00,OVC,OVC,0.01,WeatherDisplay:10.31,2013-02-03 22:35:00,
2013-02-03 17:45:00,32.2,26.1,29.79,SSW,198,2.0,6.0,78,0.00,OVC,OVC,0.01,WeatherDisplay:10.31,2013-02-03 22:45:00,
2013-02-03 17:50:00,32.2,26.1,29.79,SSW,202,1.0,5.0,78,0.00,OVC,OVC,0.01,WeatherDisplay:10.31,2013-02-03 22:50:00,
2013-02-03 18:00:00,32.1,26.0,29.79,SSW,202,3.0,5.0,78,0.00,OVC,OVC,0.01,WeatherDisplay:10.31,2013-02-03 23:00:00,
2013-02-03 18:05:00,31.9,25.8,29.79,SSW,202,2.0,5.0,78,0.00,OVC,OVC,0.01,WeatherDisplay:10.31,2013-02-03 23:05:00,
2013-02-03 18:10:00,31.8,25.7,29.79,SSW,202,3.0,5.0,78,0.00,OVC,OVC,0.01,WeatherDisplay:10.31,2013-02-03 23:10:00,
2013-02-03 18:20:00,31.6,25.5,29.79,SSW,202,3.0,6.0,78,0.00,OVC,OVC,0.01,WeatherDisplay:10.31,2013-02-03 23:20:00,
2013-02-03 18:30:00,31.5,25.4,29.79,SSW,202,2.0,7.0,78,0.00,OVC,OVC,0.01,WeatherDisplay:10.31,2013-02-03 23:30:00,
2013-02-03 18:40:00,31.5,25.4,29.79,SSW,202,2.0,3.0,78,0.00,OVC,OVC,0.01,WeatherDisplay:10.31,2013-02-03 23:40:00,
2013-02-03 18:50:00,31.3,25.5,29.80,SSW,202,1.0,2.0,79,0.00,OVC,OVC,0.01,WeatherDisplay:10.31,2013-02-03 23:50:00,
2013-02-03 19:00:00,31.3,25.5,29.80,SSW,202,1.0,2.0,79,0.00,OVC,OVC,0.01,WeatherDisplay:10.31,2013-02-04 00:00:00,
2013-02-03 19:05:00,31.3,25.5,29.81,SSW,202,0.0,2.0,79,0.00,OVC,OVC,0.01,WeatherDisplay:10.31,2013-02-04 00:05:00,
2013-02-03 19:10:00,31.2,25.4,29.81,SSW,202,0.0,2.0,79,0.00,OVC,OVC,0.01,WeatherDisplay:10.31,2013-02-04 00:10:00,
2013-02-03 19:20:00,31.2,25.4,29.81,SSW,202,2.0,2.0,79,0.00,OVC,OVC,0.01,WeatherDisplay:10.31,2013-02-04 00:20:00,
2013-02-03 19:30:00,31.0,25.2,29.81,SSW,202,1.0,3.0,79,0.00,OVC,OVC,0.01,WeatherDisplay:10.31,2013-02-04 00:30:00,
2013-02-03 19:35:00,31.0,25.2,29.81,SSW,202,2.0,3.0,79,0.00,OVC,OVC,0.01,WeatherDisplay:10.31,2013-02-04 00:35:00,
2013-02-03 19:45:00,31.0,25.6,29.81,SSW,202,2.0,3.0,80,0.00,OVC,OVC,0.01,WeatherDisplay:10.31,2013-02-04 00:45:00,
2013-02-03 19:50:00,31.0,25.6,29.82,SSW,202,2.0,3.0,80,0.00,OVC,OVC,0.01,WeatherDisplay:10.31,2013-02-04 00:50:00,
2013-02-03 20:00:00,31.2,25.7,29.82,SSW,202,1.0,3.0,80,0.00,OVC,OVC,0.01,WeatherDisplay:10.31,2013-02-04 01:00:00,
2013-02-03 20:05:00,31.2,26.0,29.82,SSW,202,1.0,3.0,81,0.00,OVC,OVC,0.01,WeatherDisplay:10.31,2013-02-04 01:05:00,
2013-02-03 20:10:00,31.2,26.0,29.82,SSW,202,2.0,3.0,81,0.00,OVC,OVC,0.01,WeatherDisplay:10.31,2013-02-04 01:10:00,
2013-02-03 20:20:00,31.3,26.1,29.82,SSW,202,2.0,3.0,81,0.00,OVC,OVC,0.01,WeatherDisplay:10.31,2013-02-04 01:20:00,
2013-02-03 20:30:00,31.3,26.1,29.83,SSW,202,1.0,3.0,81,0.00,OVC,OVC,0.01,WeatherDisplay:10.31,2013-02-04 01:30:00,
2013-02-03 20:40:00,31.5,26.6,29.84,WSW,244,6.0,7.0,82,0.00,OVC,OVC,0.01,WeatherDisplay:10.31,2013-02-04 01:40:00,
2013-02-03 20:50:00,31.6,26.7,29.84,West,265,3.0,6.0,82,0.00,OVC,OVC,0.01,WeatherDisplay:10.31,2013-02-04 01:50:00,
2013-02-03 20:55:00,31.6,26.7,29.84,West,263,6.0,7.0,82,0.00,OVC,OVC,0.01,WeatherDisplay:10.31,2013-02-04 01:55:00,
2013-02-03 21:05:00,31.8,26.6,29.84,SW,231,3.0,9.0,81,0.00,OVC,OVC,0.01,WeatherDisplay:10.31,2013-02-04 02:05:00,
2013-02-03 21:10:00,31.8,26.6,29.84,SW,225,7.0,10.0,81,0.00,OVC,OVC,0.01,WeatherDisplay:10.31,2013-02-04 02:10:00,
2013-02-03 21:20:00,31.9,26.4,29.84,SW,231,3.0,10.0,80,0.00,OVC,OVC,0.01,WeatherDisplay:10.31,2013-02-04 02:20:00,
2013-02-03 21:30:00,31.9,26.1,29.85,West,266,8.0,12.0,79,0.00,OVC,OVC,0.01,WeatherDisplay:10.31,2013-02-04 02:30:00,
2013-02-03 21:40:00,31.9,25.5,29.85,West,272,7.0,13.0,77,0.00,OVC,OVC,0.01,WeatherDisplay:10.31,2013-02-04 02:40:00,
2013-02-03 21:50:00,32.2,23.5,29.85,West,273,6.0,12.0,70,0.00,OVC,OVC,0.01,WeatherDisplay:10.31,2013-02-04 02:50:00,
2013-02-03 22:00:00,32.4,22.7,29.85,WNW,289,5.0,15.0,67,0.00,OVC,OVC,0.01,WeatherDisplay:10.31,2013-02-04 03:00:00,
2013-02-03 22:05:00,32.4,22.3,29.85,WNW,292,5.0,12.0,66,0.00,OVC,OVC,0.01,WeatherDisplay:10.31,2013-02-04 03:05:00,
2013-02-03 22:10:00,32.4,21.9,29.86,WNW,296,9.0,14.0,65,0.00,OVC,OVC,0.01,WeatherDisplay:10.31,2013-02-04 03:10:00,
2013-02-03 22:20:00,32.4,20.8,29.87,WNW,293,9.0,28.0,62,0.00,OVC,OVC,0.01,WeatherDisplay:10.31,2013-02-04 03:20:00,
2013-02-03 22:25:00,32.4,20.8,29.87,WNW,297,10.0,21.0,62,0.00,OVC,OVC,0.01,WeatherDisplay:10.31,2013-02-04 03:25:00,
2013-02-03 22:30:00,32.1,20.5,29.87,WNW,294,7.0,22.0,62,0.00,OVC,OVC,0.01,WeatherDisplay:10.31,2013-02-04 03:30:00,
2013-02-03 22:40:00,31.8,20.3,29.87,WNW,286,6.0,14.0,62,0.00,OVC,OVC,0.01,WeatherDisplay:10.31,2013-02-04 03:40:00,
2013-02-03 22:50:00,31.5,19.6,29.87,West,277,7.0,12.0,61,0.00,OVC,OVC,0.01,WeatherDisplay:10.31,2013-02-04 03:50:00,
2013-02-03 23:00:00,31.3,17.8,29.88,West,276,6.0,14.0,57,0.00,OVC,OVC,0.01,WeatherDisplay:10.31,2013-02-04 04:00:00,
2013-02-03 23:05:00,31.3,17.0,29.88,WNW,284,6.0,17.0,55,0.00,OVC,OVC,0.01,WeatherDisplay:10.31,2013-02-04 04:05:00,
2013-02-03 23:10:00,31.3,16.1,29.88,WNW,284,8.0,15.0,53,0.00,OVC,OVC,0.01,WeatherDisplay:10.31,2013-02-04 04:10:00,
2013-02-03 23:20:00,31.6,14.6,29.88,West,278,3.0,17.0,49,0.00,OVC,OVC,0.01,WeatherDisplay:10.31,2013-02-04 04:20:00,
2013-02-03 23:30:00,31.6,15.5,29.89,NW,309,7.0,13.0,51,0.00,OVC,OVC,0.01,WeatherDisplay:10.31,2013-02-04 04:30:00,
2013-02-03 23:40:00,31.5,15.9,29.89,WNW,296,7.0,21.0,52,0.00,OVC,OVC,0.01,WeatherDisplay:10.31,2013-02-04 04:40:00,
2013-02-03 23:50:00,31.3,16.1,29.90,WNW,289,5.0,12.0,53,0.00,OVC,OVC,0.01,WeatherDisplay:10.31,2013-02-04 04:50:00,